createdAt,value
2023-10-16T00:00:42.467Z,98950.02
2023-10-16T00:03:10.420Z,98955.96
2023-10-16T00:05:39.692Z,98957.51
2023-10-16T00:08:07.535Z,98956.02
2023-10-16T00:10:36.786Z,98956.44
2023-10-16T00:13:13.148Z,98951.67
2023-10-16T00:15:50.939Z,98954.77
2023-10-16T00:18:24.913Z,98953.02
2023-10-16T00:20:53.431Z,98951.27
2023-10-16T00:23:26.039Z,98951.73
2023-10-16T00:25:53.597Z,98952.83
2023-10-16T00:28:24.021Z,98952.05
2023-10-16T00:30:52.101Z,98951.88
2023-10-16T00:33:19.633Z,98952.23
2023-10-16T00:35:47.098Z,98946.95
2023-10-16T00:38:15.256Z,98952.90
2023-10-16T00:40:46.327Z,98944.01
2023-10-16T00:43:17.671Z,98945.33
2023-10-16T00:46:07.627Z,98939.84
2023-10-16T00:48:35.700Z,98932.45
2023-10-16T00:51:08.964Z,98931.48
2023-10-16T00:53:39.716Z,98929.62
2023-10-16T00:56:19.516Z,98926.77
2023-10-16T00:58:48.510Z,98930.96
2023-10-16T01:01:16.116Z,98932.05
2023-10-16T01:03:44.057Z,98927.64
2023-10-16T01:06:18.731Z,98931.15
2023-10-16T01:08:46.644Z,98928.81
2023-10-16T01:11:15.840Z,98924.67
2023-10-16T01:13:43.389Z,98923.59
2023-10-16T01:16:11.374Z,98918.58
2023-10-16T01:18:39.127Z,98919.23
2023-10-16T01:21:07.033Z,98918.71
2023-10-16T01:23:36.094Z,98918.93
2023-10-16T01:26:04.071Z,98917.62
2023-10-16T01:28:31.634Z,98920.38
2023-10-16T01:31:01.596Z,98918.01
2023-10-16T01:33:31.817Z,98913.80
2023-10-16T01:36:00.170Z,98914.61
2023-10-16T01:38:28.459Z,98915.62
2023-10-16T01:41:11.153Z,98917.37
2023-10-16T01:43:38.772Z,98919.56
2023-10-16T01:46:09.966Z,98918.48
2023-10-16T01:48:43.674Z,98915.50
2023-10-16T01:51:11.870Z,98914.88
2023-10-16T01:53:40.842Z,98915.29
2023-10-16T01:56:14.819Z,98909.21
2023-10-16T01:58:45.188Z,98901.71
2023-10-16T02:01:13.664Z,98898.48
2023-10-16T02:03:47.604Z,98889.09
2023-10-16T02:06:19.258Z,98881.27
2023-10-16T02:08:49.045Z,98876.85
2023-10-16T02:11:17.427Z,98876.12
2023-10-16T02:13:45.163Z,98874.40
2023-10-16T02:16:14.570Z,98871.06
2023-10-16T02:18:42.214Z,98870.66
2023-10-16T02:21:13.353Z,98870.13
2023-10-16T02:23:44.874Z,98870.81
2023-10-16T02:26:13.233Z,98871.92
2023-10-16T02:28:47.794Z,98872.48
2023-10-16T02:31:16.869Z,98871.58
2023-10-16T02:33:54.939Z,98872.39
2023-10-16T02:36:22.983Z,98868.29
2023-10-16T02:38:51.546Z,98873.89
2023-10-16T02:41:21.944Z,98873.58
2023-10-16T02:43:52.475Z,98876.46
2023-10-16T02:46:22.945Z,98870.71
2023-10-16T02:48:54.320Z,98876.92
2023-10-16T02:51:21.860Z,98873.83
2023-10-16T02:53:52.381Z,98878.42
2023-10-16T02:56:23.557Z,98873.12
2023-10-16T02:58:56.351Z,98869.56
2023-10-16T03:01:24.076Z,98861.91
2023-10-16T03:03:53.937Z,98854.69
2023-10-16T03:06:21.598Z,98863.66
2023-10-16T03:08:52.459Z,98864.55
2023-10-16T03:11:22.091Z,98866.98
2023-10-16T03:13:52.568Z,98867.65
2023-10-16T03:16:28.421Z,98866.11
2023-10-16T03:19:10.854Z,98870.55
2023-10-16T03:21:41.371Z,98872.70
2023-10-16T03:24:10.630Z,98873.14
2023-10-16T03:26:43.741Z,98873.38
2023-10-16T03:29:11.808Z,98874.77
2023-10-16T03:31:41.386Z,98876.02
2023-10-16T03:34:12.993Z,98876.86
2023-10-16T03:36:42.775Z,98880.48
2023-10-16T03:39:13.395Z,98886.98
2023-10-16T03:41:40.983Z,98886.63
2023-10-16T03:44:09.194Z,98883.51
2023-10-16T03:46:39.719Z,98881.92
2023-10-16T03:49:10.320Z,98880.21
2023-10-16T03:51:39.756Z,98880.17
2023-10-16T03:54:07.524Z,98875.39
2023-10-16T03:56:37.167Z,98875.49
2023-10-16T03:59:04.830Z,98871.63
2023-10-16T04:01:37.137Z,98873.60
2023-10-16T04:04:08.580Z,98865.76
2023-10-16T04:06:41.318Z,98861.60
2023-10-16T04:09:11.046Z,98859.01
2023-10-16T04:11:38.635Z,98855.84
2023-10-16T04:14:10.485Z,98855.52
2023-10-16T04:16:56.605Z,98857.49
2023-10-16T04:19:36.828Z,98863.60
2023-10-16T04:22:10.735Z,98868.70
2023-10-16T04:24:47.664Z,98864.54
2023-10-16T04:27:18.220Z,98865.27
2023-10-16T04:30:01.058Z,98871.20
2023-10-16T04:32:34.786Z,98873.88
2023-10-16T04:35:25.159Z,98875.64
2023-10-16T04:38:18.666Z,98875.70
2023-10-16T04:41:11.517Z,98874.30
2023-10-16T04:43:42.434Z,98879.09
2023-10-16T04:46:22.414Z,98879.73
2023-10-16T04:48:50.091Z,98875.64
2023-10-16T04:54:00.186Z,98868.90
2023-10-16T04:56:46.781Z,98862.10
2023-10-16T04:59:34.496Z,98856.77
2023-10-16T05:02:11.748Z,98861.52
2023-10-16T05:04:57.834Z,98867.84
2023-10-16T05:07:44.576Z,98868.92
2023-10-16T05:10:41.145Z,98861.34
2023-10-16T05:13:36.935Z,98866.27
2023-10-16T05:16:23.131Z,98867.10
2023-10-16T05:19:04.625Z,98864.31
2023-10-16T05:21:52.037Z,98866.55
2023-10-16T05:24:38.561Z,98862.80
2023-10-16T05:27:24.964Z,98864.80
2023-10-16T05:30:11.181Z,98876.24
2023-10-16T05:33:00.546Z,98877.45
2023-10-16T05:35:46.921Z,98877.31
2023-10-16T05:38:33.139Z,98884.83
2023-10-16T05:41:39.135Z,98873.48
2023-10-16T05:44:26.117Z,98874.97
2023-10-16T05:47:12.611Z,98865.85
2023-10-16T05:49:58.716Z,98866.52
2023-10-16T05:52:48.388Z,98870.38
2023-10-16T05:55:34.649Z,98866.64
2023-10-16T05:58:20.784Z,98862.88
2023-10-16T06:01:11.666Z,98873.86
2023-10-16T06:03:58.158Z,98885.95
2023-10-16T06:06:46.000Z,98886.08
2023-10-16T06:09:32.298Z,98895.40
2023-10-16T06:12:18.630Z,98893.54
2023-10-16T06:14:46.690Z,98899.09
2023-10-16T06:17:17.333Z,98895.88
2023-10-16T06:19:45.270Z,98891.29
2023-10-16T06:22:13.292Z,98886.70
2023-10-16T06:24:46.468Z,98887.98
2023-10-16T06:27:21.592Z,98886.98
2023-10-16T06:29:52.424Z,98888.77
2023-10-16T06:32:27.587Z,98889.98
2023-10-16T06:35:02.478Z,98893.40
2023-10-16T06:37:32.878Z,98895.79
2023-10-16T06:40:02.800Z,98902.64
2023-10-16T06:42:30.966Z,98909.86
2023-10-16T06:45:20.827Z,98906.61
2023-10-16T06:47:51.718Z,98913.70
2023-10-16T06:50:25.183Z,98916.11
2023-10-16T06:53:02.792Z,98911.52
2023-10-16T06:55:30.633Z,98912.30
2023-10-16T06:57:58.422Z,98909.89
2023-10-16T07:00:27.268Z,98903.86
2023-10-16T07:02:56.186Z,98907.37
2023-10-16T07:05:46.804Z,98903.81
2023-10-16T07:08:19.079Z,98903.66
2023-10-16T07:10:53.552Z,98903.05
2023-10-16T07:13:28.856Z,98895.89
2023-10-16T07:16:01.851Z,98895.35
2023-10-16T07:18:33.300Z,98896.95
2023-10-16T07:21:08.807Z,98895.63
2023-10-16T07:23:37.330Z,98892.23
2023-10-16T07:26:06.725Z,98904.91
2023-10-16T07:28:34.791Z,98903.55
2023-10-16T07:31:04.620Z,98901.05
2023-10-16T07:33:33.357Z,98903.80
2023-10-16T07:36:01.155Z,98904.61
2023-10-16T07:38:29.780Z,98901.80
2023-10-16T07:40:59.138Z,98905.45
2023-10-16T07:43:30.325Z,98907.86
2023-10-16T07:46:12.321Z,98908.45
2023-10-16T07:48:45.536Z,98909.30
2023-10-16T07:51:13.771Z,98910.40
2023-10-16T07:53:41.368Z,98915.52
2023-10-16T07:56:27.362Z,98914.86
2023-10-16T07:59:08.514Z,98915.01
2023-10-16T08:01:38.233Z,98917.11
2023-10-16T08:04:20.803Z,98911.05
2023-10-16T08:06:49.302Z,98913.80
2023-10-16T08:09:26.409Z,98911.52
2023-10-16T08:12:00.394Z,98911.86
2023-10-16T08:14:34.019Z,98915.27
2023-10-16T08:17:16.087Z,98917.63
2023-10-16T08:19:47.904Z,98916.15
2023-10-16T08:22:15.603Z,98923.41
2023-10-16T08:24:45.418Z,98926.05
2023-10-16T08:27:24.877Z,98920.55
2023-10-16T08:29:55.104Z,98921.46
2023-10-16T08:32:41.320Z,98919.17
2023-10-16T08:35:11.010Z,98916.30
2023-10-16T08:37:51.362Z,98913.52
2023-10-16T08:40:25.384Z,98911.84
2023-10-16T08:43:02.952Z,98913.20
2023-10-16T08:45:33.862Z,98911.23
2023-10-16T08:48:07.973Z,98914.56
2023-10-16T08:50:53.901Z,98915.09
2023-10-16T08:53:34.973Z,98913.41
2023-10-16T08:56:11.078Z,98914.77
2023-10-16T08:58:43.594Z,98908.88
2023-10-16T09:01:13.662Z,98906.57
2023-10-16T09:03:58.946Z,98904.76
2023-10-16T09:06:26.920Z,98905.63
2023-10-16T09:08:56.237Z,98908.11
2023-10-16T09:11:23.937Z,98898.45
2023-10-16T09:13:54.787Z,98898.21
2023-10-16T09:16:24.934Z,98890.60
2023-10-16T09:18:54.793Z,98892.63
2023-10-16T09:21:26.114Z,98884.38
2023-10-16T09:24:00.003Z,98883.48
2023-10-16T09:26:33.718Z,98880.52
2023-10-16T09:29:17.061Z,98882.56
2023-10-16T09:31:48.663Z,98885.02
2023-10-16T09:34:20.609Z,98884.23
2023-10-16T09:36:50.584Z,98883.52
2023-10-16T09:39:18.636Z,98888.06
2023-10-16T09:42:01.085Z,98888.41
2023-10-16T09:44:40.994Z,98894.79
2023-10-16T09:47:27.439Z,98893.30
2023-10-16T09:50:02.366Z,98897.18
2023-10-16T09:52:33.039Z,98894.48
2023-10-16T09:55:01.498Z,98896.30
2023-10-16T09:57:32.738Z,98890.22
2023-10-16T10:00:19.354Z,98901.73
2023-10-16T10:02:46.935Z,98888.84
2023-10-16T10:05:15.283Z,98890.67
2023-10-16T10:07:50.258Z,98883.36
2023-10-16T10:10:34.168Z,98887.84
2023-10-16T10:13:12.071Z,98889.83
2023-10-16T10:15:50.198Z,98890.88
2023-10-16T10:18:47.663Z,98902.27
2023-10-16T10:21:19.850Z,98909.30
2023-10-16T10:23:48.717Z,98910.23
2023-10-16T10:26:20.252Z,98905.54
2023-10-16T10:29:13.752Z,98905.88
2023-10-16T10:31:42.822Z,98900.03
2023-10-16T10:34:30.418Z,98897.77
2023-10-16T10:37:01.378Z,98899.41
2023-10-16T10:39:31.992Z,98908.23
2023-10-16T10:42:05.120Z,98905.23
2023-10-16T10:44:46.187Z,98897.41
2023-10-16T10:47:25.664Z,98897.15
2023-10-16T10:49:54.034Z,98909.64
2023-10-16T10:52:21.835Z,98911.79
2023-10-16T10:55:02.555Z,98906.88
2023-10-16T10:57:30.324Z,98914.80
2023-10-16T10:59:58.149Z,98907.04
2023-10-16T11:02:31.739Z,98909.38
2023-10-16T11:05:02.569Z,98915.71
2023-10-16T11:07:41.381Z,98915.05
2023-10-16T11:10:09.196Z,98920.08
2023-10-16T11:12:38.342Z,98911.61
2023-10-16T11:15:28.107Z,98916.92
2023-10-16T11:17:58.963Z,98921.21
2023-10-16T11:20:30.920Z,98916.38
2023-10-16T11:22:59.084Z,98916.45
2023-10-16T11:25:54.673Z,98928.00
2023-10-16T11:28:23.788Z,98923.17
2023-10-16T11:30:55.544Z,98919.01
2023-10-16T11:33:57.156Z,98920.10
2023-10-16T11:36:42.048Z,98922.21
2023-10-16T11:39:21.284Z,98925.71
2023-10-16T11:41:50.511Z,98936.73
2023-10-16T11:44:18.550Z,98927.27
2023-10-16T11:46:47.816Z,98940.18
2023-10-16T11:49:15.890Z,98941.84
2023-10-16T11:51:52.647Z,98941.17
2023-10-16T11:54:27.825Z,98940.05
2023-10-16T11:56:59.483Z,98944.09
2023-10-16T11:59:28.429Z,98936.77
2023-10-16T12:02:04.089Z,98950.98
2023-10-16T12:04:33.475Z,98948.77
2023-10-16T12:07:01.685Z,98949.83
2023-10-16T12:09:38.447Z,98951.65
2023-10-16T12:12:07.942Z,98952.67
2023-10-16T12:14:39.201Z,98952.05
2023-10-16T12:17:07.926Z,98954.87
2023-10-16T12:19:36.222Z,98959.39
2023-10-16T12:22:03.825Z,98964.52
2023-10-16T12:24:31.516Z,98967.18
2023-10-16T12:26:59.265Z,98964.69
2023-10-16T12:29:27.028Z,98967.30
2023-10-16T12:31:56.851Z,98968.40
2023-10-16T12:34:25.457Z,98967.80
2023-10-16T12:36:58.860Z,98973.03
2023-10-16T12:39:26.805Z,98974.00
2023-10-16T12:41:57.475Z,98985.20
2023-10-16T12:44:28.854Z,98990.74
2023-10-16T12:46:57.430Z,98990.03
2023-10-16T12:49:27.230Z,98998.31
2023-10-16T12:51:55.407Z,99009.52
2023-10-16T12:54:26.512Z,99003.80
2023-10-16T12:56:55.373Z,99008.98
2023-10-16T12:59:22.885Z,99009.30
2023-10-16T13:01:53.919Z,99017.52
2023-10-16T13:04:21.745Z,99022.73
2023-10-16T13:06:50.586Z,99019.18
2023-10-16T13:09:19.609Z,99032.59
2023-10-16T13:11:47.820Z,99033.83
2023-10-16T13:14:15.796Z,99033.39
2023-10-16T13:16:44.993Z,99034.79
2023-10-16T13:19:12.796Z,99038.18
2023-10-16T13:21:43.333Z,99035.41
2023-10-16T13:24:12.669Z,99037.27
2023-10-16T13:26:41.248Z,99037.08
2023-10-16T13:29:10.218Z,99037.28
2023-10-16T13:31:38.657Z,99040.23
2023-10-16T13:34:06.317Z,99043.20
2023-10-16T13:36:37.639Z,99047.83
2023-10-16T13:39:12.222Z,99044.05
2023-10-16T13:41:52.122Z,99053.98
2023-10-16T13:44:20.959Z,99057.21
2023-10-16T13:46:48.467Z,99057.73
2023-10-16T13:49:17.431Z,99060.02
2023-10-16T13:51:48.911Z,99058.04
2023-10-16T13:54:16.882Z,99066.54
2023-10-16T13:56:47.760Z,99065.73
2023-10-16T13:59:15.930Z,99072.65
2023-10-16T14:01:47.068Z,99078.96
2023-10-16T14:04:15.990Z,99074.94
2023-10-16T14:06:53.213Z,99081.46
2023-10-16T14:09:30.433Z,99082.88
2023-10-16T14:12:00.199Z,99082.91
2023-10-16T14:14:29.239Z,99077.64
2023-10-16T14:17:05.962Z,99087.44
2023-10-16T14:19:34.100Z,99088.48
2023-10-16T14:22:08.056Z,99084.55
2023-10-16T14:24:36.336Z,99086.38
2023-10-16T14:27:06.281Z,99094.02
2023-10-16T14:29:35.234Z,99101.73
2023-10-16T14:32:04.100Z,99098.23
2023-10-16T14:34:32.370Z,99099.94
2023-10-16T14:36:59.906Z,99104.69
2023-10-16T14:39:30.772Z,99106.79
2023-10-16T14:42:03.241Z,99113.02
2023-10-16T14:44:31.048Z,99109.40
2023-10-16T14:46:58.998Z,99117.88
2023-10-16T14:49:26.751Z,99124.23
2023-10-16T14:51:55.163Z,99122.77
2023-10-16T14:54:23.308Z,99132.86
2023-10-16T14:56:53.007Z,99135.15
2023-10-16T14:59:26.686Z,99141.38
2023-10-16T15:01:55.915Z,99140.81
2023-10-16T15:04:27.499Z,99146.05
2023-10-16T15:07:03.120Z,99147.30
2023-10-16T15:09:33.309Z,99154.73
2023-10-16T15:12:01.343Z,99152.50
2023-10-16T15:14:30.607Z,99154.15
2023-10-16T15:16:58.443Z,99154.59
2023-10-16T15:19:28.584Z,99157.42
2023-10-16T15:21:56.457Z,99157.09
2023-10-16T15:24:24.286Z,99157.23
2023-10-16T15:26:51.835Z,99165.07
2023-10-16T15:29:19.591Z,99175.45
2023-10-16T15:31:47.439Z,99180.17
2023-10-16T15:34:15.342Z,99183.35
2023-10-16T15:36:50.262Z,99184.74
2023-10-16T15:39:18.238Z,99182.46
2023-10-16T15:41:47.010Z,99189.79
2023-10-16T15:44:14.902Z,99189.98
2023-10-16T15:46:42.862Z,99189.71
2023-10-16T15:49:10.726Z,99187.77
2023-10-16T15:51:38.738Z,99194.80
2023-10-16T15:54:07.044Z,99197.30
2023-10-16T15:56:38.048Z,99199.77
2023-10-16T15:59:05.604Z,99199.88
2023-10-16T16:01:34.746Z,99202.54
2023-10-16T16:04:05.030Z,99212.13
2023-10-16T16:06:34.865Z,99211.80
2023-10-16T16:09:05.006Z,99217.10
2023-10-16T16:11:33.250Z,99225.63
2023-10-16T16:14:01.026Z,99226.17
2023-10-16T16:16:32.024Z,99229.42
2023-10-16T16:18:59.974Z,99229.54
2023-10-16T16:21:27.696Z,99239.20
2023-10-16T16:23:55.754Z,99239.02
2023-10-16T16:26:23.413Z,99250.59
2023-10-16T16:28:51.856Z,99248.39
2023-10-16T16:31:21.765Z,99251.66
2023-10-16T16:33:52.660Z,99261.79
2023-10-16T16:36:22.191Z,99265.89
2023-10-16T16:38:56.953Z,99270.91
2023-10-16T16:41:26.441Z,99271.08
2023-10-16T16:43:55.662Z,99273.42
2023-10-16T16:46:25.057Z,99270.76
2023-10-16T16:48:52.673Z,99273.98
2023-10-16T16:51:20.298Z,99279.98
2023-10-16T16:53:51.235Z,99281.08
2023-10-16T16:56:22.936Z,99286.45
2023-10-16T16:58:55.186Z,99292.75
2023-10-16T17:01:22.774Z,99297.59
2023-10-16T17:03:52.152Z,99297.22
2023-10-16T17:06:19.877Z,99301.73
2023-10-16T17:08:47.610Z,99300.20
2023-10-16T17:11:17.249Z,99295.25
2023-10-16T17:13:45.135Z,99294.72
2023-10-16T17:16:13.003Z,99298.42
2023-10-16T17:18:40.760Z,99302.19
2023-10-16T17:21:10.302Z,99308.95
2023-10-16T17:23:39.303Z,99312.88
2023-10-16T17:26:11.586Z,99311.64
2023-10-16T17:28:39.189Z,99315.34
2023-10-16T17:31:06.840Z,99317.23
2023-10-16T17:33:35.537Z,99319.50
2023-10-16T17:36:04.250Z,99322.39
2023-10-16T17:38:37.818Z,99327.55
2023-10-16T17:41:05.635Z,99333.52
2023-10-16T17:43:36.321Z,99337.39
2023-10-16T17:46:04.065Z,99338.31
2023-10-16T17:48:31.843Z,99338.33
2023-10-16T17:51:00.057Z,99339.49
2023-10-16T17:53:29.101Z,99342.02
2023-10-16T17:55:58.168Z,99342.71
2023-10-16T17:58:26.984Z,99347.00
2023-10-16T18:00:57.752Z,99348.67
2023-10-16T18:03:30.791Z,99348.83
2023-10-16T18:06:00.879Z,99352.58
2023-10-16T18:08:28.558Z,99353.23
2023-10-16T18:10:56.148Z,99355.65
2023-10-16T18:13:24.110Z,99359.14
2023-10-16T18:15:55.295Z,99359.73
2023-10-16T18:18:24.032Z,99364.04
2023-10-16T18:20:52.073Z,99369.89
2023-10-16T18:23:20.838Z,99370.04
2023-10-16T18:25:48.652Z,99368.54
2023-10-16T18:28:16.302Z,99363.33
2023-10-16T18:30:44.463Z,99371.06
2023-10-16T18:33:13.062Z,99365.05
2023-10-16T18:35:42.493Z,99366.13
2023-10-16T18:38:15.329Z,99369.52
2023-10-16T18:40:43.020Z,99370.63
2023-10-16T18:43:11.079Z,99372.51
2023-10-16T18:45:43.737Z,99370.14
2023-10-16T18:48:11.494Z,99370.30
2023-10-16T18:50:39.353Z,99375.73
2023-10-16T18:53:14.165Z,99383.84
2023-10-16T18:55:42.235Z,99379.44
2023-10-16T18:58:10.850Z,99380.52
2023-10-16T19:00:38.648Z,99381.15
2023-10-16T19:03:07.493Z,99386.05
2023-10-16T19:05:37.746Z,99388.95
2023-10-16T19:08:07.056Z,99394.21
2023-10-16T19:10:36.083Z,99393.61
2023-10-16T19:13:05.409Z,99392.10
2023-10-16T19:15:34.605Z,99389.48
2023-10-16T19:18:02.547Z,99389.32
2023-10-16T19:20:30.657Z,99388.89
2023-10-16T19:22:58.313Z,99393.98
2023-10-16T19:25:27.131Z,99397.36
2023-10-16T19:27:54.875Z,99398.02
2023-10-16T19:30:22.552Z,99402.04
2023-10-16T19:32:50.170Z,99410.79
2023-10-16T19:35:18.140Z,99411.42
2023-10-16T19:37:46.041Z,99411.88
2023-10-16T19:40:17.160Z,99406.77
2023-10-16T19:42:46.028Z,99408.17
2023-10-16T19:45:14.603Z,99411.32
2023-10-16T19:47:42.985Z,99414.39
2023-10-16T19:50:11.533Z,99415.84
2023-10-16T19:52:45.242Z,99419.88
2023-10-16T19:55:19.377Z,99417.98
2023-10-16T19:57:47.227Z,99420.45
2023-10-16T20:00:18.914Z,99424.82
2023-10-16T20:02:51.110Z,99429.91
2023-10-16T20:05:20.436Z,99433.84
2023-10-16T20:07:48.831Z,99434.43
2023-10-16T20:10:17.413Z,99432.23
2023-10-16T20:12:46.863Z,99432.93
2023-10-16T20:15:17.466Z,99437.92
2023-10-16T20:17:45.775Z,99440.18
2023-10-16T20:20:40.751Z,99438.90
2023-10-16T20:23:11.208Z,99440.88
2023-10-16T20:25:45.384Z,99448.13
2023-10-16T20:28:14.791Z,99452.96
2023-10-16T20:30:48.270Z,99458.77
2023-10-16T20:33:17.825Z,99460.27
2023-10-16T20:35:46.875Z,99458.77
2023-10-16T20:38:19.253Z,99461.11
2023-10-16T20:40:47.314Z,99467.77
2023-10-16T20:43:14.896Z,99464.38
2023-10-16T20:45:42.961Z,99472.02
2023-10-16T20:48:12.126Z,99469.98
2023-10-16T20:50:39.846Z,99473.83
2023-10-16T20:53:07.311Z,99470.29
2023-10-16T20:55:35.983Z,99470.50
2023-10-16T20:58:05.294Z,99474.27
2023-10-16T21:00:33.401Z,99474.53
2023-10-16T21:03:07.682Z,99477.84
2023-10-16T21:05:37.094Z,99479.95
2023-10-16T21:08:05.714Z,99484.24
2023-10-16T21:10:33.441Z,99478.55
2023-10-16T21:13:04.510Z,99480.05
2023-10-16T21:15:34.915Z,99480.85
2023-10-16T21:18:02.700Z,99488.59
2023-10-16T21:20:30.438Z,99492.61
2023-10-16T21:22:58.221Z,99493.20
2023-10-16T21:25:26.007Z,99494.52
2023-10-16T21:27:56.410Z,99496.23
2023-10-16T21:30:24.613Z,99496.45
2023-10-16T21:32:53.481Z,99500.77
2023-10-16T21:35:26.372Z,99508.02
2023-10-16T21:37:54.409Z,99505.47
2023-10-16T21:40:25.037Z,99502.45
2023-10-16T21:42:53.196Z,99505.39
2023-10-16T21:45:22.528Z,99505.65
2023-10-16T21:47:51.427Z,99512.61
2023-10-16T21:50:19.912Z,99513.30
2023-10-16T21:52:47.475Z,99515.34
2023-10-16T21:55:15.088Z,99517.44
2023-10-16T21:57:42.712Z,99518.81
2023-10-16T22:00:28.715Z,99529.65
2023-10-16T22:02:59.730Z,99532.28
2023-10-16T22:05:27.501Z,99536.30
2023-10-16T22:07:57.821Z,99539.16
2023-10-16T22:10:25.410Z,99546.70
2023-10-16T22:12:53.364Z,99542.23
2023-10-16T22:15:21.149Z,99546.70
2023-10-16T22:17:50.440Z,99541.95
2023-10-16T22:20:20.004Z,99547.23
2023-10-16T22:22:47.804Z,99555.21
2023-10-16T22:25:17.843Z,99550.83
2023-10-16T22:27:45.503Z,99550.03
2023-10-16T22:30:15.888Z,99546.40
2023-10-16T22:32:44.052Z,99548.17
2023-10-16T22:35:12.479Z,99545.06
2023-10-16T22:37:43.629Z,99553.65
2023-10-16T22:40:17.598Z,99555.48
2023-10-16T22:42:45.300Z,99561.56
2023-10-16T22:45:17.142Z,99563.00
2023-10-16T22:47:45.367Z,99561.88
2023-10-16T22:50:12.994Z,99562.30
2023-10-16T22:52:40.780Z,99569.10
2023-10-16T22:55:09.299Z,99565.23
2023-10-16T22:57:37.259Z,99564.05
2023-10-16T23:00:13.613Z,99571.63
2023-10-16T23:02:41.850Z,99567.60
2023-10-16T23:05:15.506Z,99568.09
2023-10-16T23:07:46.322Z,99567.94
2023-10-16T23:10:15.083Z,99566.06
2023-10-16T23:12:45.328Z,99562.20
2023-10-16T23:15:21.019Z,99563.98
2023-10-16T23:17:49.342Z,99564.45
2023-10-16T23:20:25.918Z,99567.23
2023-10-16T23:22:54.150Z,99572.48
2023-10-16T23:25:22.316Z,99572.86
2023-10-16T23:27:52.723Z,99575.25
2023-10-16T23:30:23.469Z,99574.13
2023-10-16T23:32:54.039Z,99575.42
2023-10-16T23:35:26.623Z,99576.55
2023-10-16T23:37:54.465Z,99579.27
2023-10-16T23:40:34.233Z,99579.30
2023-10-16T23:43:09.341Z,99583.59
2023-10-16T23:45:38.793Z,99576.68
2023-10-16T23:48:20.316Z,99581.22
2023-10-16T23:50:52.097Z,99587.39
2023-10-16T23:53:31.869Z,99581.70
2023-10-16T23:56:11.189Z,99580.40
2023-10-16T23:58:44.121Z,99578.46
